sensor_id;sensor_type;location;lat;lon;timestamp;temperature;humidity
42227;DHT22;27892;52.378;13.122;2022-08-03T00:01:29;22.30;54.70
42227;DHT22;27892;52.378;13.122;2022-08-03T00:03:54;22.20;54.50
42227;DHT22;27892;52.378;13.122;2022-08-03T00:06:20;22.10;54.60
42227;DHT22;27892;52.378;13.122;2022-08-03T00:08:45;22.10;54.90
42227;DHT22;27892;52.378;13.122;2022-08-03T00:11:11;22.10;54.80
42227;DHT22;27892;52.378;13.122;2022-08-03T00:13:37;22.10;54.80
42227;DHT22;27892;52.378;13.122;2022-08-03T00:16:02;22.10;54.90
42227;DHT22;27892;52.378;13.122;2022-08-03T00:18:28;22.10;54.80
42227;DHT22;27892;52.378;13.122;2022-08-03T00:20:54;22.10;54.70
42227;DHT22;27892;52.378;13.122;2022-08-03T00:23:19;22.10;54.80
42227;DHT22;27892;52.378;13.122;2022-08-03T00:25:45;22.10;54.80
42227;DHT22;27892;52.378;13.122;2022-08-03T00:28:10;22.00;54.80
42227;DHT22;27892;52.378;13.122;2022-08-03T00:30:36;22.00;54.70
42227;DHT22;27892;52.378;13.122;2022-08-03T00:33:02;21.90;54.70
42227;DHT22;27892;52.378;13.122;2022-08-03T00:35:29;21.90;54.70
42227;DHT22;27892;52.378;13.122;2022-08-03T00:37:55;21.90;54.50
42227;DHT22;27892;52.378;13.122;2022-08-03T00:40:21;21.90;54.30
42227;DHT22;27892;52.378;13.122;2022-08-03T00:45:12;22.00;53.70
42227;DHT22;27892;52.378;13.122;2022-08-03T00:47:38;22.00;53.50
42227;DHT22;27892;52.378;13.122;2022-08-03T00:50:04;22.00;53.70
42227;DHT22;27892;52.378;13.122;2022-08-03T00:52:29;22.00;53.50
42227;DHT22;27892;52.378;13.122;2022-08-03T00:54:55;22.10;53.30
42227;DHT22;27892;52.378;13.122;2022-08-03T00:57:21;22.10;53.40
42227;DHT22;27892;52.378;13.122;2022-08-03T00:59:47;22.00;53.50
42227;DHT22;27892;52.378;13.122;2022-08-03T01:02:12;22.00;53.70
42227;DHT22;27892;52.378;13.122;2022-08-03T01:04:38;22.00;53.80
42227;DHT22;27892;52.378;13.122;2022-08-03T01:10:05;22.00;53.90
42227;DHT22;27892;52.378;13.122;2022-08-03T01:12:43;21.90;54.00
42227;DHT22;27892;52.378;13.122;2022-08-03T01:15:18;21.90;54.00
42227;DHT22;27892;52.378;13.122;2022-08-03T01:17:53;21.90;53.70
42227;DHT22;27892;52.378;13.122;2022-08-03T01:20:21;22.00;53.60
42227;DHT22;27892;52.378;13.122;2022-08-03T01:26:20;22.00;53.70
42227;DHT22;27892;52.378;13.122;2022-08-03T01:29:19;21.90;53.80
42227;DHT22;27892;52.378;13.122;2022-08-03T01:31:55;21.90;54.20
42227;DHT22;27892;52.378;13.122;2022-08-03T01:34:26;21.90;54.40
42227;DHT22;27892;52.378;13.122;2022-08-03T01:36:55;21.80;54.10
42227;DHT22;27892;52.378;13.122;2022-08-03T01:39:23;21.80;54.40
42227;DHT22;27892;52.378;13.122;2022-08-03T01:41:55;21.80;54.70
42227;DHT22;27892;52.378;13.122;2022-08-03T01:44:29;21.70;54.80
42227;DHT22;27892;52.378;13.122;2022-08-03T01:46:59;21.80;54.90
42227;DHT22;27892;52.378;13.122;2022-08-03T01:49:36;21.80;54.80
42227;DHT22;27892;52.378;13.122;2022-08-03T01:52:03;21.80;54.90
42227;DHT22;27892;52.378;13.122;2022-08-03T01:54:31;21.80;54.80
42227;DHT22;27892;52.378;13.122;2022-08-03T01:56:59;21.90;54.70
42227;DHT22;27892;52.378;13.122;2022-08-03T01:59:27;21.80;54.80
42227;DHT22;27892;52.378;13.122;2022-08-03T02:01:53;21.80;55.00
42227;DHT22;27892;52.378;13.122;2022-08-03T02:04:21;21.80;55.00
42227;DHT22;27892;52.378;13.122;2022-08-03T02:06:49;21.80;55.80
42227;DHT22;27892;52.378;13.122;2022-08-03T02:09:16;21.80;55.10
42227;DHT22;27892;52.378;13.122;2022-08-03T02:11:45;21.70;55.20
42227;DHT22;27892;52.378;13.122;2022-08-03T02:14:12;21.70;55.40
42227;DHT22;27892;52.378;13.122;2022-08-03T02:16:38;21.70;55.40
42227;DHT22;27892;52.378;13.122;2022-08-03T02:19:05;21.60;55.30
42227;DHT22;27892;52.378;13.122;2022-08-03T02:21:34;21.60;55.40
42227;DHT22;27892;52.378;13.122;2022-08-03T02:24:00;21.60;55.60
42227;DHT22;27892;52.378;13.122;2022-08-03T02:26:28;21.50;55.60
42227;DHT22;27892;52.378;13.122;2022-08-03T02:28:56;21.60;55.90
42227;DHT22;27892;52.378;13.122;2022-08-03T02:31:27;21.50;55.80
42227;DHT22;27892;52.378;13.122;2022-08-03T02:34:01;21.50;55.90
42227;DHT22;27892;52.378;13.122;2022-08-03T02:36:29;21.50;56.10
42227;DHT22;27892;52.378;13.122;2022-08-03T02:38:58;21.50;56.20
42227;DHT22;27892;52.378;13.122;2022-08-03T02:41:31;21.50;56.20
42227;DHT22;27892;52.378;13.122;2022-08-03T02:43:59;21.40;56.10
42227;DHT22;27892;52.378;13.122;2022-08-03T02:46:30;21.40;56.30
42227;DHT22;27892;52.378;13.122;2022-08-03T02:48:59;21.40;56.40
42227;DHT22;27892;52.378;13.122;2022-08-03T02:51:46;21.40;56.30
42227;DHT22;27892;52.378;13.122;2022-08-03T02:54:31;21.40;56.60
42227;DHT22;27892;52.378;13.122;2022-08-03T02:57:16;21.40;56.70
42227;DHT22;27892;52.378;13.122;2022-08-03T03:00:03;21.30;56.50
42227;DHT22;27892;52.378;13.122;2022-08-03T03:02:48;21.40;56.80
42227;DHT22;27892;52.378;13.122;2022-08-03T03:05:33;21.30;56.80
42227;DHT22;27892;52.378;13.122;2022-08-03T03:08:19;21.30;56.90
42227;DHT22;27892;52.378;13.122;2022-08-03T03:11:06;21.40;57.10
42227;DHT22;27892;52.378;13.122;2022-08-03T03:13:52;21.40;57.10
42227;DHT22;27892;52.378;13.122;2022-08-03T03:16:36;21.40;57.20
42227;DHT22;27892;52.378;13.122;2022-08-03T03:19:22;21.50;57.20
42227;DHT22;27892;52.378;13.122;2022-08-03T03:22:08;21.50;57.20
42227;DHT22;27892;52.378;13.122;2022-08-03T03:24:35;21.50;57.00
42227;DHT22;27892;52.378;13.122;2022-08-03T03:27:01;21.60;57.10
42227;DHT22;27892;52.378;13.122;2022-08-03T03:29:27;21.60;57.20
42227;DHT22;27892;52.378;13.122;2022-08-03T03:31:53;21.70;57.00
42227;DHT22;27892;52.378;13.122;2022-08-03T03:34:19;21.70;56.80
42227;DHT22;27892;52.378;13.122;2022-08-03T03:36:45;21.70;56.60
42227;DHT22;27892;52.378;13.122;2022-08-03T03:39:11;21.80;56.50
42227;DHT22;27892;52.378;13.122;2022-08-03T03:41:37;21.80;56.30
42227;DHT22;27892;52.378;13.122;2022-08-03T03:44:03;21.80;56.20
42227;DHT22;27892;52.378;13.122;2022-08-03T03:46:29;21.80;56.20
42227;DHT22;27892;52.378;13.122;2022-08-03T03:48:55;21.80;56.10
42227;DHT22;27892;52.378;13.122;2022-08-03T03:51:21;21.80;55.80
42227;DHT22;27892;52.378;13.122;2022-08-03T03:53:57;21.80;55.90
42227;DHT22;27892;52.378;13.122;2022-08-03T03:56:23;21.90;56.30
42227;DHT22;27892;52.378;13.122;2022-08-03T03:58:49;21.90;56.20
42227;DHT22;27892;52.378;13.122;2022-08-03T04:01:15;21.90;56.00
42227;DHT22;27892;52.378;13.122;2022-08-03T04:03:41;21.90;56.10
42227;DHT22;27892;52.378;13.122;2022-08-03T04:06:07;21.90;56.10
42227;DHT22;27892;52.378;13.122;2022-08-03T04:08:51;22.00;56.20
42227;DHT22;27892;52.378;13.122;2022-08-03T04:11:52;22.00;56.10
42227;DHT22;27892;52.378;13.122;2022-08-03T04:14:25;22.00;56.20
42227;DHT22;27892;52.378;13.122;2022-08-03T04:17:00;22.00;56.10
42227;DHT22;27892;52.378;13.122;2022-08-03T04:21:56;21.90;56.00
42227;DHT22;27892;52.378;13.122;2022-08-03T04:24:23;21.90;56.50
42227;DHT22;27892;52.378;13.122;2022-08-03T04:26:49;21.90;56.20
42227;DHT22;27892;52.378;13.122;2022-08-03T04:29:17;21.90;56.20
42227;DHT22;27892;52.378;13.122;2022-08-03T04:31:44;21.90;56.40
42227;DHT22;27892;52.378;13.122;2022-08-03T04:34:11;21.90;56.40
42227;DHT22;27892;52.378;13.122;2022-08-03T04:36:42;21.90;56.30
42227;DHT22;27892;52.378;13.122;2022-08-03T04:39:30;21.90;56.40
42227;DHT22;27892;52.378;13.122;2022-08-03T04:42:02;22.00;56.80
42227;DHT22;27892;52.378;13.122;2022-08-03T04:44:30;22.00;56.50
42227;DHT22;27892;52.378;13.122;2022-08-03T04:46:57;22.00;56.30
42227;DHT22;27892;52.378;13.122;2022-08-03T04:49:23;22.00;56.30
42227;DHT22;27892;52.378;13.122;2022-08-03T04:51:50;22.10;56.40
42227;DHT22;27892;52.378;13.122;2022-08-03T04:54:16;22.20;56.40
42227;DHT22;27892;52.378;13.122;2022-08-03T04:56:42;22.20;56.60
42227;DHT22;27892;52.378;13.122;2022-08-03T04:59:11;22.30;56.20
42227;DHT22;27892;52.378;13.122;2022-08-03T05:01:38;22.40;56.00
42227;DHT22;27892;52.378;13.122;2022-08-03T05:04:04;22.50;55.80
42227;DHT22;27892;52.378;13.122;2022-08-03T05:06:29;22.60;55.30
42227;DHT22;27892;52.378;13.122;2022-08-03T05:08:55;22.70;54.30
42227;DHT22;27892;52.378;13.122;2022-08-03T05:11:21;22.90;54.00
42227;DHT22;27892;52.378;13.122;2022-08-03T05:13:47;23.00;54.30
42227;DHT22;27892;52.378;13.122;2022-08-03T05:16:13;23.20;54.40
42227;DHT22;27892;52.378;13.122;2022-08-03T05:18:42;23.30;54.40
42227;DHT22;27892;52.378;13.122;2022-08-03T05:21:09;23.50;54.40
42227;DHT22;27892;52.378;13.122;2022-08-03T05:23:35;23.50;54.40
42227;DHT22;27892;52.378;13.122;2022-08-03T05:26:01;23.60;54.20
42227;DHT22;27892;52.378;13.122;2022-08-03T05:28:26;23.70;53.80
42227;DHT22;27892;52.378;13.122;2022-08-03T05:30:52;23.80;53.30
42227;DHT22;27892;52.378;13.122;2022-08-03T05:33:18;23.90;52.80
42227;DHT22;27892;52.378;13.122;2022-08-03T05:35:43;24.00;51.90
42227;DHT22;27892;52.378;13.122;2022-08-03T05:38:09;24.20;51.70
42227;DHT22;27892;52.378;13.122;2022-08-03T05:40:34;24.40;50.80
42227;DHT22;27892;52.378;13.122;2022-08-03T05:43:00;24.50;49.20
42227;DHT22;27892;52.378;13.122;2022-08-03T05:45:26;24.70;48.90
42227;DHT22;27892;52.378;13.122;2022-08-03T05:47:51;24.90;48.70
42227;DHT22;27892;52.378;13.122;2022-08-03T05:50:18;25.10;47.80
42227;DHT22;27892;52.378;13.122;2022-08-03T05:52:44;25.30;46.80
42227;DHT22;27892;52.378;13.122;2022-08-03T05:55:11;25.70;46.60
42227;DHT22;27892;52.378;13.122;2022-08-03T05:57:37;26.10;45.80
42227;DHT22;27892;52.378;13.122;2022-08-03T06:00:05;27.00;45.20
42227;DHT22;27892;52.378;13.122;2022-08-03T06:02:31;29.00;42.70
42227;DHT22;27892;52.378;13.122;2022-08-03T06:04:57;31.20;38.90
42227;DHT22;27892;52.378;13.122;2022-08-03T06:07:23;33.00;36.00
42227;DHT22;27892;52.378;13.122;2022-08-03T06:09:48;34.40;33.70
42227;DHT22;27892;52.378;13.122;2022-08-03T06:12:14;35.50;31.90
42227;DHT22;27892;52.378;13.122;2022-08-03T06:14:40;36.60;30.30
42227;DHT22;27892;52.378;13.122;2022-08-03T06:17:05;37.50;29.20
42227;DHT22;27892;52.378;13.122;2022-08-03T06:19:31;38.10;27.70
42227;DHT22;27892;52.378;13.122;2022-08-03T06:21:57;38.80;27.70
42227;DHT22;27892;52.378;13.122;2022-08-03T06:24:23;39.60;26.80
42227;DHT22;27892;52.378;13.122;2022-08-03T06:26:48;40.50;26.40
42227;DHT22;27892;52.378;13.122;2022-08-03T06:29:14;41.20;25.10
42227;DHT22;27892;52.378;13.122;2022-08-03T06:31:39;41.90;24.60
42227;DHT22;27892;52.378;13.122;2022-08-03T06:34:05;42.50;23.70
42227;DHT22;27892;52.378;13.122;2022-08-03T06:36:31;42.90;23.20
42227;DHT22;27892;52.378;13.122;2022-08-03T06:38:57;43.40;22.70
42227;DHT22;27892;52.378;13.122;2022-08-03T06:41:24;43.90;22.10
42227;DHT22;27892;52.378;13.122;2022-08-03T06:43:50;44.40;22.20
42227;DHT22;27892;52.378;13.122;2022-08-03T06:46:16;45.00;21.50
42227;DHT22;27892;52.378;13.122;2022-08-03T06:48:42;45.40;20.80
42227;DHT22;27892;52.378;13.122;2022-08-03T06:51:07;45.60;20.10
42227;DHT22;27892;52.378;13.122;2022-08-03T06:53:33;45.70;20.50
42227;DHT22;27892;52.378;13.122;2022-08-03T06:55:59;46.10;20.00
42227;DHT22;27892;52.378;13.122;2022-08-03T06:58:24;46.20;19.40
42227;DHT22;27892;52.378;13.122;2022-08-03T07:00:50;46.50;19.70
42227;DHT22;27892;52.378;13.122;2022-08-03T07:03:17;46.70;19.50
42227;DHT22;27892;52.378;13.122;2022-08-03T07:05:43;46.90;19.70
42227;DHT22;27892;52.378;13.122;2022-08-03T07:08:12;47.00;18.80
42227;DHT22;27892;52.378;13.122;2022-08-03T07:10:38;46.80;19.00
42227;DHT22;27892;52.378;13.122;2022-08-03T07:13:04;46.90;19.00
42227;DHT22;27892;52.378;13.122;2022-08-03T07:15:30;47.00;18.00
42227;DHT22;27892;52.378;13.122;2022-08-03T07:17:56;46.90;18.60
42227;DHT22;27892;52.378;13.122;2022-08-03T07:20:22;47.20;17.80
42227;DHT22;27892;52.378;13.122;2022-08-03T07:22:47;47.20;18.00
42227;DHT22;27892;52.378;13.122;2022-08-03T07:25:13;47.70;17.50
42227;DHT22;27892;52.378;13.122;2022-08-03T07:27:44;48.00;17.50
42227;DHT22;27892;52.378;13.122;2022-08-03T07:30:10;48.60;17.10
42227;DHT22;27892;52.378;13.122;2022-08-03T07:32:36;48.60;16.80
42227;DHT22;27892;52.378;13.122;2022-08-03T07:35:02;48.80;17.30
42227;DHT22;27892;52.378;13.122;2022-08-03T07:37:29;49.10;16.50
42227;DHT22;27892;52.378;13.122;2022-08-03T07:39:55;48.90;16.30
42227;DHT22;27892;52.378;13.122;2022-08-03T07:42:21;48.60;16.60
42227;DHT22;27892;52.378;13.122;2022-08-03T07:44:48;48.70;16.60
42227;DHT22;27892;52.378;13.122;2022-08-03T07:47:27;48.50;16.50
42227;DHT22;27892;52.378;13.122;2022-08-03T07:49:53;48.00;16.90
42227;DHT22;27892;52.378;13.122;2022-08-03T07:52:20;47.30;17.70
42227;DHT22;27892;52.378;13.122;2022-08-03T07:55:05;46.40;18.00
42227;DHT22;27892;52.378;13.122;2022-08-03T07:57:32;44.90;19.00
42227;DHT22;27892;52.378;13.122;2022-08-03T07:59:58;44.20;19.60
42227;DHT22;27892;52.378;13.122;2022-08-03T08:02:24;43.50;19.70
42227;DHT22;27892;52.378;13.122;2022-08-03T08:04:49;42.90;20.10
42227;DHT22;27892;52.378;13.122;2022-08-03T08:07:15;42.20;20.40
42227;DHT22;27892;52.378;13.122;2022-08-03T08:09:41;41.70;21.00
42227;DHT22;27892;52.378;13.122;2022-08-03T08:12:07;41.40;21.10
42227;DHT22;27892;52.378;13.122;2022-08-03T08:14:34;41.20;21.50
42227;DHT22;27892;52.378;13.122;2022-08-03T08:17:00;41.00;21.60
42227;DHT22;27892;52.378;13.122;2022-08-03T08:19:26;41.00;21.60
42227;DHT22;27892;52.378;13.122;2022-08-03T08:21:51;41.10;21.70
42227;DHT22;27892;52.378;13.122;2022-08-03T08:24:17;41.40;21.30
42227;DHT22;27892;52.378;13.122;2022-08-03T08:26:43;41.20;21.30
42227;DHT22;27892;52.378;13.122;2022-08-03T08:29:09;41.10;21.60
42227;DHT22;27892;52.378;13.122;2022-08-03T08:31:34;40.70;21.90
42227;DHT22;27892;52.378;13.122;2022-08-03T08:34:00;40.30;22.00
42227;DHT22;27892;52.378;13.122;2022-08-03T08:36:34;40.00;22.30
42227;DHT22;27892;52.378;13.122;2022-08-03T08:39:00;39.60;22.30
42227;DHT22;27892;52.378;13.122;2022-08-03T08:41:26;39.60;22.50
42227;DHT22;27892;52.378;13.122;2022-08-03T08:43:53;39.40;22.50
42227;DHT22;27892;52.378;13.122;2022-08-03T08:46:19;39.30;22.50
42227;DHT22;27892;52.378;13.122;2022-08-03T08:48:45;39.20;22.90
42227;DHT22;27892;52.378;13.122;2022-08-03T08:51:13;39.30;22.70
42227;DHT22;27892;52.378;13.122;2022-08-03T08:53:43;39.50;22.60
42227;DHT22;27892;52.378;13.122;2022-08-03T08:56:13;39.70;22.40
42227;DHT22;27892;52.378;13.122;2022-08-03T08:58:48;39.60;21.40
42227;DHT22;27892;52.378;13.122;2022-08-03T09:01:19;39.10;22.50
42227;DHT22;27892;52.378;13.122;2022-08-03T09:03:46;39.10;22.70
42227;DHT22;27892;52.378;13.122;2022-08-03T09:06:12;39.00;22.40
42227;DHT22;27892;52.378;13.122;2022-08-03T09:08:39;38.60;22.80
42227;DHT22;27892;52.378;13.122;2022-08-03T09:11:05;38.70;23.30
42227;DHT22;27892;52.378;13.122;2022-08-03T09:13:32;38.80;22.50
42227;DHT22;27892;52.378;13.122;2022-08-03T09:18:34;38.60;23.00
42227;DHT22;27892;52.378;13.122;2022-08-03T09:21:17;38.50;22.90
42227;DHT22;27892;52.378;13.122;2022-08-03T09:26:11;38.50;22.80
42227;DHT22;27892;52.378;13.122;2022-08-03T09:28:37;38.50;23.00
42227;DHT22;27892;52.378;13.122;2022-08-03T09:31:02;38.70;23.00
42227;DHT22;27892;52.378;13.122;2022-08-03T09:33:28;38.90;22.90
42227;DHT22;27892;52.378;13.122;2022-08-03T09:35:54;39.00;22.80
42227;DHT22;27892;52.378;13.122;2022-08-03T09:38:22;39.10;22.70
42227;DHT22;27892;52.378;13.122;2022-08-03T09:40:51;39.00;22.40
42227;DHT22;27892;52.378;13.122;2022-08-03T09:43:18;38.90;22.40
42227;DHT22;27892;52.378;13.122;2022-08-03T09:45:44;38.60;22.80
42227;DHT22;27892;52.378;13.122;2022-08-03T09:48:26;38.40;22.80
42227;DHT22;27892;52.378;13.122;2022-08-03T09:50:56;38.30;23.00
42227;DHT22;27892;52.378;13.122;2022-08-03T09:53:22;38.40;22.90
42227;DHT22;27892;52.378;13.122;2022-08-03T09:56:01;38.60;22.70
42227;DHT22;27892;52.378;13.122;2022-08-03T09:58:28;38.60;22.80
42227;DHT22;27892;52.378;13.122;2022-08-03T10:01:03;38.70;22.60
42227;DHT22;27892;52.378;13.122;2022-08-03T10:03:36;38.70;22.60
42227;DHT22;27892;52.378;13.122;2022-08-03T10:06:15;38.80;22.50
42227;DHT22;27892;52.378;13.122;2022-08-03T10:08:44;39.00;22.80
42227;DHT22;27892;52.378;13.122;2022-08-03T10:11:09;38.90;22.40
42227;DHT22;27892;52.378;13.122;2022-08-03T10:13:35;38.80;22.60
42227;DHT22;27892;52.378;13.122;2022-08-03T10:16:01;39.00;22.20
42227;DHT22;27892;52.378;13.122;2022-08-03T10:18:29;39.00;22.50
42227;DHT22;27892;52.378;13.122;2022-08-03T10:21:00;39.10;22.30
42227;DHT22;27892;52.378;13.122;2022-08-03T10:23:27;39.00;22.60
42227;DHT22;27892;52.378;13.122;2022-08-03T10:25:57;39.00;22.70
42227;DHT22;27892;52.378;13.122;2022-08-03T10:28:32;39.00;22.20
42227;DHT22;27892;52.378;13.122;2022-08-03T10:30:59;39.10;22.40
42227;DHT22;27892;52.378;13.122;2022-08-03T10:33:27;39.20;22.40
42227;DHT22;27892;52.378;13.122;2022-08-03T10:35:56;39.40;22.30
42227;DHT22;27892;52.378;13.122;2022-08-03T10:38:43;39.50;22.40
42227;DHT22;27892;52.378;13.122;2022-08-03T10:41:12;39.70;22.30
42227;DHT22;27892;52.378;13.122;2022-08-03T10:43:57;39.80;22.00
42227;DHT22;27892;52.378;13.122;2022-08-03T10:46:23;39.80;22.00
42227;DHT22;27892;52.378;13.122;2022-08-03T10:48:50;39.70;22.30
42227;DHT22;27892;52.378;13.122;2022-08-03T10:51:18;39.70;22.40
42227;DHT22;27892;52.378;13.122;2022-08-03T10:53:44;39.70;22.60
42227;DHT22;27892;52.378;13.122;2022-08-03T10:59:17;40.00;22.20
42227;DHT22;27892;52.378;13.122;2022-08-03T11:01:50;39.90;22.10
42227;DHT22;27892;52.378;13.122;2022-08-03T11:04:18;40.00;21.80
42227;DHT22;27892;52.378;13.122;2022-08-03T11:06:44;40.00;21.70
42227;DHT22;27892;52.378;13.122;2022-08-03T11:09:16;40.00;22.30
42227;DHT22;27892;52.378;13.122;2022-08-03T11:11:45;39.90;21.70
42227;DHT22;27892;52.378;13.122;2022-08-03T11:14:20;39.70;22.40
42227;DHT22;27892;52.378;13.122;2022-08-03T11:17:05;40.00;22.70
42227;DHT22;27892;52.378;13.122;2022-08-03T11:19:58;40.10;21.60
42227;DHT22;27892;52.378;13.122;2022-08-03T11:22:23;39.90;21.80
42227;DHT22;27892;52.378;13.122;2022-08-03T11:27:26;39.70;22.30
42227;DHT22;27892;52.378;13.122;2022-08-03T11:35:10;39.70;22.00
42227;DHT22;27892;52.378;13.122;2022-08-03T11:43:02;39.80;22.50
42227;DHT22;27892;52.378;13.122;2022-08-03T11:45:28;39.80;22.50
42227;DHT22;27892;52.378;13.122;2022-08-03T11:47:55;39.70;22.00
42227;DHT22;27892;52.378;13.122;2022-08-03T11:50:23;39.60;22.90
42227;DHT22;27892;52.378;13.122;2022-08-03T11:52:49;39.80;22.90
42227;DHT22;27892;52.378;13.122;2022-08-03T11:55:17;40.30;23.10
42227;DHT22;27892;52.378;13.122;2022-08-03T11:57:44;40.70;22.90
42227;DHT22;27892;52.378;13.122;2022-08-03T12:03:14;41.40;22.10
42227;DHT22;27892;52.378;13.122;2022-08-03T12:05:42;41.50;21.60
42227;DHT22;27892;52.378;13.122;2022-08-03T12:08:09;41.60;21.70
42227;DHT22;27892;52.378;13.122;2022-08-03T12:10:36;41.50;21.80
42227;DHT22;27892;52.378;13.122;2022-08-03T12:13:05;41.60;22.20
42227;DHT22;27892;52.378;13.122;2022-08-03T12:15:34;41.80;22.00
42227;DHT22;27892;52.378;13.122;2022-08-03T12:18:02;42.00;21.70
42227;DHT22;27892;52.378;13.122;2022-08-03T12:20:30;42.00;20.80
42227;DHT22;27892;52.378;13.122;2022-08-03T12:23:06;41.60;21.70
42227;DHT22;27892;52.378;13.122;2022-08-03T12:25:33;41.30;21.40
42227;DHT22;27892;52.378;13.122;2022-08-03T12:28:19;41.00;21.10
42227;DHT22;27892;52.378;13.122;2022-08-03T12:30:49;40.70;22.00
42227;DHT22;27892;52.378;13.122;2022-08-03T12:33:25;40.60;21.60
42227;DHT22;27892;52.378;13.122;2022-08-03T12:36:08;40.50;21.60
42227;DHT22;27892;52.378;13.122;2022-08-03T12:38:36;40.20;22.50
42227;DHT22;27892;52.378;13.122;2022-08-03T12:41:07;40.10;22.20
42227;DHT22;27892;52.378;13.122;2022-08-03T12:43:48;40.20;22.70
42227;DHT22;27892;52.378;13.122;2022-08-03T12:46:15;40.50;22.20
42227;DHT22;27892;52.378;13.122;2022-08-03T12:49:20;40.40;21.80
42227;DHT22;27892;52.378;13.122;2022-08-03T12:54:25;40.10;22.40
42227;DHT22;27892;52.378;13.122;2022-08-03T12:57:02;40.10;22.60
42227;DHT22;27892;52.378;13.122;2022-08-03T12:59:31;40.30;22.70
42227;DHT22;27892;52.378;13.122;2022-08-03T13:01:57;40.50;22.50
42227;DHT22;27892;52.378;13.122;2022-08-03T13:04:34;40.80;22.40
42227;DHT22;27892;52.378;13.122;2022-08-03T13:07:05;41.20;22.50
42227;DHT22;27892;52.378;13.122;2022-08-03T13:09:52;41.30;21.50
42227;DHT22;27892;52.378;13.122;2022-08-03T13:12:19;41.40;22.10
42227;DHT22;27892;52.378;13.122;2022-08-03T13:15:05;41.80;22.20
42227;DHT22;27892;52.378;13.122;2022-08-03T13:17:31;42.00;21.90
42227;DHT22;27892;52.378;13.122;2022-08-03T13:19:56;42.20;21.00
42227;DHT22;27892;52.378;13.122;2022-08-03T13:22:25;42.00;21.30
42227;DHT22;27892;52.378;13.122;2022-08-03T13:24:54;42.10;21.40
42227;DHT22;27892;52.378;13.122;2022-08-03T13:27:21;42.10;21.40
42227;DHT22;27892;52.378;13.122;2022-08-03T13:29:46;42.30;21.20
42227;DHT22;27892;52.378;13.122;2022-08-03T13:32:12;41.90;20.80
42227;DHT22;27892;52.378;13.122;2022-08-03T13:34:38;41.80;21.70
42227;DHT22;27892;52.378;13.122;2022-08-03T13:37:03;42.20;21.80
42227;DHT22;27892;52.378;13.122;2022-08-03T13:39:29;42.80;21.70
42227;DHT22;27892;52.378;13.122;2022-08-03T13:41:55;43.20;21.10
42227;DHT22;27892;52.378;13.122;2022-08-03T13:44:21;43.50;21.00
42227;DHT22;27892;52.378;13.122;2022-08-03T13:46:47;44.00;21.10
42227;DHT22;27892;52.378;13.122;2022-08-03T13:49:13;44.50;20.40
42227;DHT22;27892;52.378;13.122;2022-08-03T13:51:40;44.80;20.40
42227;DHT22;27892;52.378;13.122;2022-08-03T13:54:05;45.20;20.40
42227;DHT22;27892;52.378;13.122;2022-08-03T13:56:31;45.70;19.50
42227;DHT22;27892;52.378;13.122;2022-08-03T13:58:57;46.00;18.60
42227;DHT22;27892;52.378;13.122;2022-08-03T14:01:23;45.70;18.60
42227;DHT22;27892;52.378;13.122;2022-08-03T14:03:49;45.50;18.70
42227;DHT22;27892;52.378;13.122;2022-08-03T14:06:23;45.30;18.90
42227;DHT22;27892;52.378;13.122;2022-08-03T14:08:49;45.20;18.90
42227;DHT22;27892;52.378;13.122;2022-08-03T14:11:16;44.80;18.70
42227;DHT22;27892;52.378;13.122;2022-08-03T14:13:42;44.10;19.80
42227;DHT22;27892;52.378;13.122;2022-08-03T14:16:08;44.10;20.20
42227;DHT22;27892;52.378;13.122;2022-08-03T14:18:33;44.60;20.10
42227;DHT22;27892;52.378;13.122;2022-08-03T14:21:03;44.90;19.10
42227;DHT22;27892;52.378;13.122;2022-08-03T14:23:29;45.10;19.90
42227;DHT22;27892;52.378;13.122;2022-08-03T14:25:54;45.30;19.30
42227;DHT22;27892;52.378;13.122;2022-08-03T14:28:21;45.10;18.80
42227;DHT22;27892;52.378;13.122;2022-08-03T14:30:47;44.80;19.20
42227;DHT22;27892;52.378;13.122;2022-08-03T14:33:13;44.80;20.10
42227;DHT22;27892;52.378;13.122;2022-08-03T14:35:39;44.70;19.60
42227;DHT22;27892;52.378;13.122;2022-08-03T14:38:05;44.40;19.00
42227;DHT22;27892;52.378;13.122;2022-08-03T14:40:31;44.00;19.90
42227;DHT22;27892;52.378;13.122;2022-08-03T14:42:56;43.40;19.60
42227;DHT22;27892;52.378;13.122;2022-08-03T14:45:22;42.80;20.10
42227;DHT22;27892;52.378;13.122;2022-08-03T14:47:48;42.00;20.20
42227;DHT22;27892;52.378;13.122;2022-08-03T14:50:13;41.20;21.00
42227;DHT22;27892;52.378;13.122;2022-08-03T14:52:39;40.70;21.90
42227;DHT22;27892;52.378;13.122;2022-08-03T14:55:05;40.50;22.10
42227;DHT22;27892;52.378;13.122;2022-08-03T14:57:30;40.30;22.20
42227;DHT22;27892;52.378;13.122;2022-08-03T14:59:56;40.20;22.80
42227;DHT22;27892;52.378;13.122;2022-08-03T15:02:21;39.90;22.50
42227;DHT22;27892;52.378;13.122;2022-08-03T15:04:47;39.60;23.00
42227;DHT22;27892;52.378;13.122;2022-08-03T15:07:13;39.50;23.00
42227;DHT22;27892;52.378;13.122;2022-08-03T15:09:38;39.40;23.20
42227;DHT22;27892;52.378;13.122;2022-08-03T15:12:05;39.30;23.20
42227;DHT22;27892;52.378;13.122;2022-08-03T15:14:31;39.10;23.00
42227;DHT22;27892;52.378;13.122;2022-08-03T15:16:57;38.90;22.80
42227;DHT22;27892;52.378;13.122;2022-08-03T15:19:22;38.80;23.00
42227;DHT22;27892;52.378;13.122;2022-08-03T15:21:48;38.60;24.80
42227;DHT22;27892;52.378;13.122;2022-08-03T15:24:14;38.50;25.00
42227;DHT22;27892;52.378;13.122;2022-08-03T15:26:39;38.40;24.30
42227;DHT22;27892;52.378;13.122;2022-08-03T15:29:05;38.40;23.90
42227;DHT22;27892;52.378;13.122;2022-08-03T15:31:32;38.40;25.00
42227;DHT22;27892;52.378;13.122;2022-08-03T15:33:58;38.20;24.00
42227;DHT22;27892;52.378;13.122;2022-08-03T15:36:23;38.10;24.50
42227;DHT22;27892;52.378;13.122;2022-08-03T15:38:50;38.10;24.10
42227;DHT22;27892;52.378;13.122;2022-08-03T15:41:16;38.10;24.40
42227;DHT22;27892;52.378;13.122;2022-08-03T15:43:41;38.10;24.30
42227;DHT22;27892;52.378;13.122;2022-08-03T15:46:08;38.00;24.00
42227;DHT22;27892;52.378;13.122;2022-08-03T15:48:33;37.90;24.10
42227;DHT22;27892;52.378;13.122;2022-08-03T15:50:59;37.80;23.90
42227;DHT22;27892;52.378;13.122;2022-08-03T15:53:24;37.70;23.80
42227;DHT22;27892;52.378;13.122;2022-08-03T15:55:50;37.60;24.70
42227;DHT22;27892;52.378;13.122;2022-08-03T15:58:15;37.60;24.70
42227;DHT22;27892;52.378;13.122;2022-08-03T16:00:42;37.50;24.10
42227;DHT22;27892;52.378;13.122;2022-08-03T16:03:08;37.50;25.40